Historyczne dane pomiarowe

Dodano dane terminowe – wersja testowa.

Dane z okresu 1951-2019

Wersja bazy: 1.34 [2019-03-16, lista zmian], aktualizacja planowana na 2019-04-15

Dane meteo z obszaru Polski uzyskane na podstawie danych udostępnionych przez Instytut Meteorologii i Gospodarki Wodnej – Państwowy Instytut Badawczy.

 

Wybierz Datę:    

       

TemperaturaWilgotnośćWiatrCiśnienieOpadyŚniegCzas trwania zjawisk
 Stacja t tx tn tng RH VA  wxwx mslp ppp RRR   cm mm wxwxwxwxwxwxwx
1987-08-14 13.2 21.6 4.9 2.7-- 5.3 2.0---- 2.1------------
1987-08-13 13.1 18.6 5.6 1.2-- 4.7 2.0---- 0.0------------
1987-08-12 12.5 18.0 8.0 4.3-- 3.7 3.0---- 0.0------------
1987-08-11 13.3 17.2 10.3 7.7-- 5.7 6.3---- 1.8------------
1987-08-10 15.3 19.2 14.1 11.1-- 5.0 3.0---- 3.9------------
1987-08-09 16.7 24.5 9.5 6.2-- 4.0 1.3---- 0.0------------
1987-08-08 14.7 20.5 9.9 6.7-- 2.3 1.7---- 0.0------------
1987-08-07 11.1 18.4 5.6 2.2-- 5.3 2.3---- 2.0------------
1987-08-06 11.2 16.2 8.1 4.5-- 4.0 4.3---- 1.8------------
1987-08-05 11.6 18.3 7.1 6.3-- 5.3 0.3---- 2.2------------
1987-08-04 15.8 21.0 11.6 8.7-- 5.0 4.7---- 0.1------------
1987-08-03 15.3 20.0 8.6 6.1-- 3.7 2.7---- 0.0------------
1987-08-02 15.3 18.5 12.5 11.1-- 6.0 2.3---- 5.0------------
1987-08-01 15.8 22.2 7.7 5.3-- 4.7 2.7---- 0.3------------
1987-07-31 15.7 21.2 13.3 10.5-- 6.7 1.7---- 0.2------------
1987-07-30 18.0 25.0 13.0 10.5-- 1.3 1.3---- 0.8------------
1987-07-29 15.0 19.5 11.2 10.4-- 4.0 3.0---- 0.0------------
1987-07-28 13.6 16.8 12.6 11.7-- 6.0 3.7---- 2.9------------
1987-07-27 12.8 17.6 7.6 5.9-- 5.0 4.7---- 2.5------------
1987-07-26 13.3 18.2 11.2 10.7-- 7.0 1.7---- 6.8------------
1987-07-25 19.4 24.6 12.7 11.3-- 3.7 2.0---- 1.4------------
1987-07-24 20.8 27.0 16.5 14.1-- 5.7 3.0---- 0.1------------
1987-07-23 21.0 27.3 11.1 8.3-- 2.3 0.3---- 2.9------------
1987-07-22 20.5 24.1 15.9 13.7-- 4.3 2.7---- 0.0------------
1987-07-21 19.6 26.6 12.1 9.2-- 5.3 0.3---- 0.0------------
1987-07-20 20.5 23.8 17.5 16.0-- 1.3 4.3---- 0.0------------
1987-07-19 23.0 29.0 19.1 18.8-- 1.3 1.3---- 0.9------------
1987-07-18 22.7 31.1 15.6 13.3-- 1.7 1.3---- 0.0------------
1987-07-17 20.4 29.6 13.1 10.7-- 6.3 1.7---- 0.0------------
1987-07-16 19.2 27.6 8.7 5.7-- 1.7 0.7---- 3.0------------
1987-07-15 15.9 23.2 6.9 3.1-- 1.3 1.0---- 0.0------------
1987-07-14 16.5 21.5 8.7 5.2-- 1.3 0.7---- 0.0------------
1987-07-13 19.5 24.8 14.2 12.2-- 3.7 2.3---- 0.0------------
1987-07-12 21.2 28.9 11.2 8.7-- 4.7 5.7---- 2.8------------
1987-07-11 16.1 24.1 7.9 4.6-- 3.3 0.7---- 0.0------------
1987-07-10 15.1 19.6 9.6 5.9-- 3.0 3.7---- 0.0------------
1987-07-09 16.5 25.2 14.1 11.2-- 7.3 1.3---- 4.3------------
1987-07-08 20.6 29.3 10.9 7.7-- 0.7 2.0---- 0.1------------
1987-07-07 18.2 26.1 8.1 4.7-- 0.0 1.0---- 0.0------------
1987-07-06 17.4 24.0 9.6 6.1-- 1.0 0.7---- 0.0------------
1987-07-05 17.2 21.6 13.3 10.7-- 4.3 3.0---- 0.5------------
1987-07-04 19.4 23.8 15.8 12.7-- 6.0 0.3---- 0.0------------
1987-07-03 19.3 23.4 16.1 15.8-- 6.7 0.7---- 0.0------------
1987-07-02 19.6 28.6 18.0 15.8-- 7.3 2.0---- 0.0------------
1987-07-01 24.8 31.1 16.6 14.2-- 1.3 0.7---- 0.0------------
1987-06-30 22.7 29.6 14.7 14.3-- 0.0 0.3---- 0.0------------
1987-06-29 21.6 26.6 14.1 11.2-- 3.0 0.7---- 0.0------------
1987-06-28 19.5 25.6 11.1 9.3-- 2.7 1.7---- 0.0------------
1987-06-27 18.8 22.5 15.0 14.7-- 4.3 3.0---- 0.0------------
1987-06-26 16.6 24.5 6.6 3.5-- 3.0 1.3---- 6.8------------
1987-06-25 15.3 19.0 13.7 11.3-- 6.0 2.7---- 0.0------------
1987-06-24 16.5 21.5 11.6 8.7-- 4.3 2.3---- 0.0------------
1987-06-23 16.6 20.5 14.0 12.7-- 5.3 1.7---- 0.0------------
1987-06-22 16.1 23.2 13.1 11.9-- 6.0 3.0---- 3.1------------
1987-06-21 17.5 25.0 8.6 5.5-- 3.0 1.0---- 0.0------------
1987-06-20 14.5 22.5 5.3 2.3-- 2.0 0.7---- 0.0------------
1987-06-19 12.9 18.5 6.4 3.1-- 2.3 2.3---- 0.0------------
1987-06-18 9.9 16.1 3.7 4.3-- 6.3 4.7---- 0.0------------
1987-06-17 12.1 14.9 9.1 7.5-- 5.3 4.0---- 0.1------------
1987-06-16 14.9 24.2 11.6 11.7-- 7.7 4.7---- 1.7------------
492.7 ms

 

Źródłem pochodzenia danych jest Instytut Meteorologii i Gospodarki Wodnej – Państwowy Instytut Badawczy. Dane Instytutu Meteorologii i Gospodarki Wodnej – Państwowego Instytutu Badawczego zostały przetworzone.

Dane źródłowe można odnaleźć na stronie https://dane.imgw.pl